Time;durP1;ratioP1;P1;durP2;ratioP2;P2;SDS_P1;SDS_P2;PMS_P1;PMS_P2;Temp;Humidity;BMP_temperature;BMP_pressure;BME280_temperature;BME280_humidity;BME280_pressure;Samples;Min_cycle;Max_cycle;Signal;HPM_P1;HPM_P2
2021/11/28 00:00:47;;;;;;;21.02;10.98;;;;;;;4.90;80.61;97300.84;5155965;27;20047;-62
2021/11/28 00:03:16;;;;;;;23.05;11.23;;;;;;;4.93;80.13;97300.34;5154602;27;20039;-62
2021/11/28 00:05:45;;;;;;;22.25;10.68;;;;;;;4.98;80.38;97305.63;5155952;27;20099;-63
2021/11/28 00:08:25;;;;;;;20.73;10.65;;;;;;;4.99;80.00;97303.78;5155730;27;20035;-63
2021/11/28 00:10:59;;;;;;;19.02;9.80;;;;;;;4.96;79.98;97309.53;5155332;27;20050;-62
2021/11/28 00:15:56;;;;;;;23.30;11.02;;;;;;;5.04;79.91;97301.19;5155283;27;20046;-62
2021/11/28 00:18:22;;;;;;;29.98;14.98;;;;;;;5.13;79.98;97307.56;5155454;27;20083;-63
2021/11/28 00:20:49;;;;;;;23.02;10.88;;;;;;;5.01;79.86;97317.47;5154021;27;20058;-62
2021/11/28 00:23:15;;;;;;;21.95;10.50;;;;;;;5.02;80.78;97311.16;5155121;27;20572;-62
2021/11/28 00:25:41;;;;;;;19.80;10.70;;;;;;;5.08;80.07;97317.25;5154960;27;20419;-62
2021/11/28 00:28:07;;;;;;;21.63;10.40;;;;;;;5.18;80.19;97319.94;5153885;27;20030;-63
2021/11/28 00:30:33;;;;;;;20.52;10.90;;;;;;;5.26;80.19;97316.81;5136548;27;20061;-62
2021/11/28 00:33:00;;;;;;;19.08;10.07;;;;;;;5.28;80.11;97312.13;5153810;27;20035;-63
2021/11/28 00:35:27;;;;;;;19.38;10.88;;;;;;;5.28;79.32;97311.34;5153842;27;20062;-62
2021/11/28 00:37:54;;;;;;;20.85;10.93;;;;;;;5.30;79.69;97322.38;5153729;27;20103;-63
2021/11/28 00:40:20;;;;;;;20.40;10.25;;;;;;;5.32;79.46;97309.78;5153645;27;20076;-62
2021/11/28 00:42:46;;;;;;;18.92;10.32;;;;;;;5.32;79.02;97315.81;5153841;27;20043;-62
2021/11/28 00:45:12;;;;;;;24.67;11.20;;;;;;;5.37;79.55;97310.59;5153514;27;20129;-62
2021/11/28 00:47:38;;;;;;;18.83;10.35;;;;;;;5.35;79.12;97306.63;5154955;27;20125;-62
2021/11/28 00:50:17;;;;;;;21.70;11.40;;;;;;;5.35;79.71;97311.88;5153509;27;20471;-61
2021/11/28 00:52:44;;;;;;;20.52;10.13;;;;;;;5.35;78.67;97312.69;5153245;27;20535;-62
2021/11/28 00:55:10;;;;;;;20.85;10.57;;;;;;;5.34;79.73;97305.84;5153421;27;20066;-62
2021/11/28 00:57:37;;;;;;;20.38;10.77;;;;;;;5.24;80.14;97298.72;5153206;27;20050;-62
2021/11/28 01:00:05;;;;;;;21.27;10.15;;;;;;;5.23;79.78;97302.38;5154587;27;20115;-62
2021/11/28 01:02:33;;;;;;;18.30;10.15;;;;;;;5.39;79.62;97298.00;5153446;27;20073;-63
2021/11/28 01:04:59;;;;;;;20.98;10.45;;;;;;;5.46;78.91;97305.66;5152341;27;20066;-62
2021/11/28 01:07:28;;;;;;;22.67;12.65;;;;;;;5.41;78.86;97297.72;5153289;27;20042;-62
2021/11/28 01:09:54;;;;;;;21.30;10.63;;;;;;;5.40;79.59;97301.41;5154426;27;20563;-63
2021/11/28 01:12:20;;;;;;;22.45;11.20;;;;;;;5.45;79.45;97301.44;5154145;27;20042;-63
2021/11/28 01:14:48;;;;;;;22.45;11.40;;;;;;;5.43;78.66;97301.69;5153176;27;20047;-63
2021/11/28 01:17:14;;;;;;;23.80;11.32;;;;;;;5.46;79.45;97306.44;5152737;27;20039;-63
2021/11/28 01:19:40;;;;;;;22.33;10.48;;;;;;;5.44;78.75;97298.03;5154115;27;20054;-62
2021/11/28 01:22:10;;;;;;;21.30;10.43;;;;;;;5.42;78.88;97296.72;5152752;27;20035;-62
2021/11/28 01:24:36;;;;;;;19.63;10.93;;;;;;;5.42;79.11;97299.34;5152592;27;20047;-61
2021/11/28 01:27:05;;;;;;;22.52;11.40;;;;;;;5.42;79.02;97300.13;5154120;27;20058;-62
2021/11/28 01:29:31;;;;;;;22.48;11.00;;;;;;;5.48;79.16;97293.06;5152604;27;20066;-62
2021/11/28 01:32:02;;;;;;;19.55;10.20;;;;;;;5.39;80.04;97295.38;5152708;27;20039;-62
2021/11/28 01:34:29;;;;;;;20.67;10.40;;;;;;;5.38;80.19;97293.00;5152526;27;20579;-62
2021/11/28 01:36:55;;;;;;;18.35;9.63;;;;;;;5.43;80.10;97293.81;5153947;27;20141;-62
2021/11/28 01:39:22;;;;;;;20.77;10.38;;;;;;;5.39;79.80;97284.09;5134970;27;20054;-62
2021/11/28 01:41:48;;;;;;;18.08;9.27;;;;;;;5.45;79.90;97302.25;5153626;27;20531;-62
2021/11/28 01:44:14;;;;;;;18.95;9.57;;;;;;;5.48;79.07;97306.19;5135130;27;20047;-62
2021/11/28 01:46:41;;;;;;;17.63;9.35;;;;;;;5.39;79.86;97299.84;5153869;27;20084;-63
2021/11/28 01:49:10;;;;;;;17.40;8.80;;;;;;;5.44;79.93;97294.59;5153505;27;20034;-62
2021/11/28 01:51:37;;;;;;;18.60;8.82;;;;;;;5.50;79.65;97304.13;5134810;27;20039;-62
2021/11/28 01:54:10;;;;;;;15.98;8.68;;;;;;;5.57;79.22;97302.03;5152144;27;20518;-63
2021/11/28 01:56:37;;;;;;;15.85;8.85;;;;;;;5.52;79.17;97301.22;5152490;27;20046;-62
2021/11/28 01:59:03;;;;;;;18.08;8.93;;;;;;;5.52;78.74;97311.72;5152246;27;20077;-61
2021/11/28 02:01:29;;;;;;;17.58;9.40;;;;;;;5.46;79.40;97303.03;5152079;27;20035;-62
2021/11/28 02:03:55;;;;;;;17.63;9.68;;;;;;;5.51;79.19;97304.91;5153383;27;20503;-62
2021/11/28 02:06:22;;;;;;;15.20;8.98;;;;;;;5.47;79.66;97307.22;5152313;27;20042;-63
2021/11/28 02:08:49;;;;;;;16.95;9.35;;;;;;;5.51;79.28;97300.44;5152007;27;20050;-63
2021/11/28 02:11:16;;;;;;;16.35;8.65;;;;;;;5.53;79.55;97298.34;5151919;27;20095;-62
2021/11/28 02:13:42;;;;;;;17.63;9.38;;;;;;;5.51;79.05;97292.53;5134575;27;20460;-62
2021/11/28 02:16:11;;;;;;;18.77;9.65;;;;;;;5.54;78.71;97302.53;5151928;27;20058;-62
2021/11/28 02:18:37;;;;;;;17.42;9.23;;;;;;;5.59;78.99;97301.75;5151849;27;20062;-62
2021/11/28 02:21:05;;;;;;;17.27;9.52;;;;;;;5.58;78.96;97298.34;5153196;27;20038;-63
2021/11/28 02:23:33;;;;;;;16.70;9.63;;;;;;;5.65;78.92;97301.56;5134855;27;20519;-62
2021/11/28 02:26:03;;;;;;;17.35;9.57;;;;;;;5.66;78.66;97295.25;5151804;27;20047;-61
2021/11/28 02:28:29;;;;;;;17.63;9.50;;;;;;;5.58;78.75;97298.34;5151806;27;20068;-63
2021/11/28 02:30:55;;;;;;;18.15;9.65;;;;;;;5.57;79.11;97303.88;5152861;27;20056;-62
2021/11/28 02:33:22;;;;;;;19.77;11.00;;;;;;;5.64;79.33;97304.41;5134763;27;20042;-62
2021/11/28 02:35:48;;;;;;;16.85;9.75;;;;;;;5.65;79.49;97306.81;5134778;27;20054;-62
2021/11/28 02:38:14;;;;;;;21.05;9.70;;;;;;;5.70;78.89;97298.13;5153183;27;20445;-62
2021/11/28 02:40:43;;;;;;;20.52;11.25;;;;;;;5.69;78.72;97305.25;5151764;27;20054;-62
2021/11/28 02:43:10;;;;;;;20.02;10.73;;;;;;;5.79;78.70;97317.63;5151903;27;20038;-62
2021/11/28 02:45:38;;;;;;;17.50;9.82;;;;;;;5.82;79.01;97311.06;5151744;27;20099;-61
2021/11/28 02:48:07;;;;;;;20.25;10.07;;;;;;;5.85;78.40;97305.28;5134595;27;20507;-63
2021/11/28 02:50:34;;;;;;;19.10;9.77;;;;;;;5.87;78.30;97298.72;5151629;27;20043;-62
2021/11/28 02:53:02;;;;;;;18.73;9.65;;;;;;;5.86;78.31;97302.41;5134573;27;20145;-62
2021/11/28 02:55:33;;;;;;;18.88;9.63;;;;;;;5.82;78.73;97303.19;5151684;27;20092;-62
2021/11/28 02:57:59;;;;;;;;;;;;;;;5.87;78.93;97303.22;5153485;27;20125;-62
2021/11/28 03:00:27;;;;;;;17.90;9.50;;;;;;;5.89;78.27;97301.91;5151486;27;20034;-62
2021/11/28 03:02:54;;;;;;;17.60;9.32;;;;;;;5.90;78.38;97314.00;5151759;27;20427;-62
2021/11/28 03:05:24;;;;;;;16.98;8.95;;;;;;;5.91;78.70;97312.16;5151337;27;20385;-62
2021/11/28 03:07:49;;;;;;;19.75;9.32;;;;;;;5.99;78.20;97316.94;5151783;27;20453;-63
2021/11/28 03:10:34;;;;;;;16.73;9.05;;;;;;;6.00;77.64;97318.56;5134088;27;20043;-62
2021/11/28 03:13:01;;;;;;;15.85;9.30;;;;;;;5.97;77.89;97324.31;5151787;27;20035;-62
2021/11/28 03:15:28;;;;;;;14.00;8.15;;;;;;;5.90;77.90;97332.41;5151498;27;20125;-62
2021/11/28 03:17:57;;;;;;;15.30;9.05;;;;;;;5.87;78.33;97337.38;5151532;27;20035;-62
2021/11/28 03:20:23;;;;;;;16.60;8.55;;;;;;;5.91;77.96;97339.25;5152777;27;20053;-62
2021/11/28 03:22:51;;;;;;;15.88;9.07;;;;;;;5.92;78.27;97334.78;5152510;27;20035;-62
2021/11/28 03:25:21;;;;;;;15.13;9.18;;;;;;;5.92;78.55;97337.41;5152874;27;20051;-62
2021/11/28 03:27:48;;;;;;;21.17;10.05;;;;;;;5.96;78.55;97337.72;5136047;27;20041;-62
2021/11/28 03:30:16;;;;;;;16.90;9.07;;;;;;;5.95;78.73;97330.88;5154830;27;20054;-62
2021/11/28 03:33:08;;;;;;;20.13;10.55;;;;;;;5.95;78.48;97326.41;5154027;27;20457;-62
2021/11/28 03:35:53;;;;;;;19.38;9.85;;;;;;;5.84;79.21;97332.66;5154893;27;20054;-62
2021/11/28 03:38:19;;;;;;;21.23;10.70;;;;;;;5.79;79.32;97324.72;5155135;27;20034;-63
2021/11/28 03:40:45;;;;;;;17.48;9.70;;;;;;;5.87;79.50;97332.13;5156378;27;20049;-62
2021/11/28 03:43:11;;;;;;;20.88;11.95;;;;;;;5.93;79.31;97339.00;5154755;27;20035;-63
2021/11/28 03:45:37;;;;;;;17.42;10.07;;;;;;;5.94;79.23;97337.97;5137630;27;20526;-64
2021/11/28 03:48:07;;;;;;;20.42;10.52;;;;;;;6.02;78.77;97348.00;5154534;27;20046;-62
2021/11/28 03:50:39;;;;;;;24.27;11.60;;;;;;;5.98;78.88;97343.53;5154799;27;20415;-62
2021/11/28 03:53:07;;;;;;;20.08;11.48;;;;;;;5.98;78.90;97351.41;5154776;27;20034;-63
2021/11/28 03:55:33;;;;;;;21.13;12.40;;;;;;;6.05;78.47;97352.75;5154723;27;20039;-62
2021/11/28 03:57:59;;;;;;;20.90;12.65;;;;;;;5.94;78.29;97359.00;5154776;27;20057;-63
2021/11/28 04:00:25;;;;;;;21.05;11.48;;;;;;;5.92;78.85;97353.97;5154252;27;20054;-62
2021/11/28 04:03:00;;;;;;;21.42;12.18;;;;;;;6.03;78.61;97361.94;5138494;27;20046;-62
2021/11/28 04:05:29;;;;;;;21.77;11.13;;;;;;;5.94;78.65;97364.25;5154565;27;20043;-62
2021/11/28 04:07:55;;;;;;;22.63;12.75;;;;;;;5.96;78.58;97369.28;5155819;27;20522;-63
2021/11/28 04:10:22;;;;;;;21.52;12.75;;;;;;;6.05;78.67;97373.78;5154319;27;20415;-62
2021/11/28 04:12:48;;;;;;;25.02;13.02;;;;;;;6.02;78.89;97373.50;5154309;27;20042;-62
2021/11/28 04:15:15;;;;;;;23.33;12.38;;;;;;;6.04;78.09;97382.72;5137044;27;20047;-63
2021/11/28 04:17:51;;;;;;;21.52;11.85;;;;;;;6.02;78.58;97381.41;5154050;27;20038;-62
2021/11/28 04:20:18;;;;;;;23.67;12.48;;;;;;;6.00;78.69;97389.56;5154017;27;20518;-62
2021/11/28 04:22:45;;;;;;;22.15;11.85;;;;;;;6.01;78.99;97388.50;5154279;27;20063;-63
2021/11/28 04:25:13;;;;;;;24.48;12.75;;;;;;;6.01;78.65;97395.59;5155468;27;20479;-62
2021/11/28 04:27:40;;;;;;;21.52;12.88;;;;;;;6.08;79.24;97394.31;5153915;27;20079;-62
2021/11/28 04:30:07;;;;;;;21.48;12.65;;;;;;;6.10;78.98;97404.59;5153628;27;20051;-63
2021/11/28 04:32:34;;;;;;;20.33;12.25;;;;;;;6.06;78.97;97406.13;5136751;27;20054;-63
2021/11/28 04:35:00;;;;;;;19.20;11.32;;;;;;;6.03;79.02;97396.13;5155283;27;20062;-63
2021/11/28 04:37:27;;;;;;;22.33;12.32;;;;;;;6.06;79.93;97411.38;5154938;27;20574;-63
2021/11/28 04:39:53;;;;;;;22.90;11.82;;;;;;;6.02;80.07;97411.13;5153737;27;20050;-62
2021/11/28 04:42:20;;;;;;;19.75;11.50;;;;;;;6.04;79.74;97409.03;5153611;27;20062;-62
2021/11/28 04:44:49;;;;;;;17.83;10.93;;;;;;;6.04;79.52;97413.50;5153632;27;20129;-62
2021/11/28 04:47:18;;;;;;;21.35;11.57;;;;;;;6.02;79.09;97421.63;5136152;27;20030;-62
2021/11/28 04:49:53;;;;;;;19.38;11.75;;;;;;;6.00;79.64;97426.38;5153579;27;20054;-62
2021/11/28 04:52:20;;;;;;;17.92;10.68;;;;;;;6.07;79.04;97426.13;5154739;27;20057;-61
2021/11/28 04:54:46;;;;;;;20.48;10.98;;;;;;;6.09;78.39;97427.47;5153306;27;20046;-62
2021/11/28 04:57:14;;;;;;;17.98;10.75;;;;;;;6.08;78.05;97428.50;5153536;27;20062;-62
2021/11/28 04:59:41;;;;;;;17.95;10.73;;;;;;;6.17;78.40;97434.06;5153148;27;20066;-62
2021/11/28 05:02:07;;;;;;;17.63;10.88;;;;;;;6.23;77.93;97437.50;5153173;27;20035;-62
2021/11/28 05:04:34;;;;;;;16.88;10.40;;;;;;;6.23;77.63;97433.03;5153143;27;20062;-63
2021/11/28 05:07:39;;;;;;;18.77;10.95;;;;;;;6.30;77.74;97441.50;5131271;27;20047;-62
2021/11/28 05:10:05;;;;;;;15.63;9.48;;;;;;;6.26;77.73;97444.88;5113972;27;20035;-62
2021/11/28 05:12:42;;;;;;;14.82;9.63;;;;;;;6.04;77.46;97452.97;5116246;27;20042;-62
2021/11/28 05:15:09;;;;;;;14.35;9.80;;;;;;;6.02;78.45;97452.41;5154150;27;20045;-62
2021/11/28 05:17:42;;;;;;;18.63;9.80;;;;;;;6.06;78.06;97453.47;5136699;27;20415;-63
2021/11/28 05:20:10;;;;;;;14.23;9.25;;;;;;;6.09;76.87;97455.63;5152912;27;20043;-61
2021/11/28 05:22:51;;;;;;;14.15;8.93;;;;;;;6.12;76.57;97463.00;5137722;27;20449;-62
2021/11/28 05:25:21;;;;;;;;;;;;;;;6.17;77.13;97462.22;5153296;27;20051;-62
2021/11/28 05:27:48;;;;;;;13.35;8.20;;;;;;;6.18;77.13;97469.06;5153031;27;20375;-62
2021/11/28 05:30:15;;;;;;;14.43;8.48;;;;;;;6.09;76.98;97466.16;5152492;27;20065;-62
2021/11/28 05:33:17;;;;;;;12.93;8.15;;;;;;;6.06;76.73;97474.50;5110230;28;20110;-63
2021/11/28 05:36:16;;;;;;;14.82;8.70;;;;;;;6.15;76.29;97470.38;5129257;27;20275;-62
2021/11/28 05:38:51;;;;;;;12.82;7.70;;;;;;;6.14;76.22;97474.81;5136744;27;20047;-63
2021/11/28 05:41:18;;;;;;;13.77;8.13;;;;;;;6.18;75.85;97482.19;5135389;27;20053;-62
2021/11/28 05:43:46;;;;;;;11.95;7.40;;;;;;;6.19;75.80;97481.97;5152694;27;20042;-62
2021/11/28 05:46:12;;;;;;;13.88;8.43;;;;;;;6.14;76.31;97489.81;5135409;27;20471;-62
2021/11/28 05:48:57;;;;;;;11.75;7.38;;;;;;;6.18;75.93;97487.47;5150926;27;20062;-62
2021/11/28 05:51:49;;;;;;;11.45;7.68;;;;;;;6.11;75.86;97493.75;5149011;27;20675;-62
2021/11/28 05:54:15;;;;;;;12.15;7.40;;;;;;;6.13;75.94;97490.88;5150822;27;20086;-62
2021/11/28 05:56:41;;;;;;;11.80;7.78;;;;;;;6.16;75.61;97498.25;5151080;27;20038;-63
2021/11/28 05:59:07;;;;;;;11.48;7.60;;;;;;;6.20;75.77;97509.06;5150847;27;20055;-62
2021/11/28 06:01:34;;;;;;;11.70;7.82;;;;;;;6.19;75.69;97510.91;5150715;27;20126;-63
2021/11/28 06:04:02;;;;;;;11.95;7.93;;;;;;;6.25;75.20;97511.72;5133499;27;20066;-63
2021/11/28 06:06:47;;;;;;;11.02;7.53;;;;;;;6.21;75.90;97511.44;5150853;27;20495;-62
2021/11/28 06:09:18;;;;;;;10.90;7.53;;;;;;;6.30;75.57;97515.19;5116270;27;20058;-61
2021/11/28 06:11:46;;;;;;;10.60;7.13;;;;;;;6.27;75.09;97512.28;5150805;27;20056;-62
2021/11/28 06:14:12;;;;;;;10.60;6.75;;;;;;;6.28;74.30;97522.53;5150557;27;20050;-62
2021/11/28 06:17:07;;;;;;;12.77;7.22;;;;;;;6.29;74.99;97526.72;5137616;27;20372;-62
2021/11/28 06:19:38;;;;;;;10.10;6.93;;;;;;;6.30;74.90;97533.59;5151384;27;20099;-63
2021/11/28 06:22:30;;;;;;;13.25;7.35;;;;;;;6.25;74.73;97544.09;5150392;27;20069;-63
2021/11/28 06:24:58;;;;;;;10.57;6.82;;;;;;;6.28;75.15;97540.94;5150510;27;20050;-62
2021/11/28 06:27:34;;;;;;;13.82;8.25;;;;;;;6.29;74.73;97550.41;5150753;27;20103;-62
2021/11/28 06:30:01;;;;;;;10.73;7.13;;;;;;;6.32;74.28;97551.75;5150474;27;20073;-63
2021/11/28 06:32:45;;;;;;;9.48;6.95;;;;;;;6.30;74.74;97567.03;5150611;27;20527;-63
2021/11/28 06:35:30;;;;;;;11.38;7.47;;;;;;;6.35;74.53;97569.66;5150487;27;20046;-62
2021/11/28 06:38:14;;;;;;;12.00;7.43;;;;;;;6.29;74.88;97568.84;5150518;27;20046;-62
2021/11/28 06:41:03;;;;;;;13.07;7.65;;;;;;;6.30;74.13;97574.91;5131068;27;20472;-64
2021/11/28 06:43:29;;;;;;;10.60;7.30;;;;;;;6.24;74.47;97575.94;5150467;27;20125;-63
2021/11/28 06:45:56;;;;;;;13.25;7.80;;;;;;;6.22;74.64;97578.81;5132862;27;20423;-63
2021/11/28 06:48:22;;;;;;;10.88;7.53;;;;;;;6.29;74.04;97581.19;5150344;27;20043;-63
2021/11/28 06:51:08;;;;;;;13.05;7.63;;;;;;;6.26;74.19;97584.34;5129436;27;20107;-63
2021/11/28 06:53:36;;;;;;;12.13;7.68;;;;;;;6.24;75.31;97581.19;5124842;27;20109;-62
2021/11/28 06:56:40;;;;;;;12.10;7.90;;;;;;;6.22;75.12;97581.44;5149865;27;20054;-62
2021/11/28 06:59:07;;;;;;;15.60;8.32;;;;;;;6.23;75.35;97577.75;5133026;27;20043;-62
2021/11/28 07:01:38;;;;;;;12.57;7.65;;;;;;;6.21;74.88;97579.84;5133090;27;20578;-63
2021/11/28 07:04:23;;;;;;;16.58;8.43;;;;;;;6.28;75.18;97585.69;5139450;27;20058;-63
2021/11/28 07:06:54;;;;;;;12.75;7.60;;;;;;;6.19;74.68;97594.31;5137884;27;20046;-63
2021/11/28 07:09:21;;;;;;;12.27;8.10;;;;;;;6.17;75.29;97588.50;5136701;27;20039;-62
2021/11/28 07:11:49;;;;;;;11.30;7.38;;;;;;;6.18;75.01;97584.81;5136908;27;20042;-62
2021/11/28 07:14:18;;;;;;;14.75;8.02;;;;;;;6.25;74.77;97582.75;5136626;27;20606;-63
2021/11/28 07:16:44;;;;;;;12.40;7.50;;;;;;;6.21;74.87;97590.38;5136901;27;20137;-63
2021/11/28 07:19:09;;;;;;;13.27;7.90;;;;;;;6.24;74.32;97595.13;5153998;27;20034;-65
2021/11/28 07:21:54;;;;;;;10.77;7.13;;;;;;;6.36;73.92;97605.47;5154063;27;20054;-64
2021/11/28 07:24:21;;;;;;;9.90;6.72;;;;;;;6.42;73.86;97609.72;5153806;27;20038;-64
2021/11/28 07:26:48;;;;;;;10.80;7.20;;;;;;;6.41;73.28;97609.97;5149126;27;20043;-62
2021/11/28 07:29:14;;;;;;;10.23;7.13;;;;;;;6.40;73.50;97619.69;5154438;27;20511;-65
2021/11/28 07:31:41;;;;;;;12.93;7.88;;;;;;;6.41;73.86;97623.13;5154906;27;20050;-63
2021/11/28 07:34:06;;;;;;;12.98;7.68;;;;;;;6.44;73.65;97628.69;5154543;27;20042;-63
2021/11/28 07:36:51;;;;;;;11.00;7.38;;;;;;;6.49;73.74;97633.19;5154527;27;20035;-64
2021/11/28 07:39:20;;;;;;;14.88;7.68;;;;;;;6.52;73.63;97627.41;5137090;27;20042;-62
2021/11/28 07:41:50;;;;;;;14.07;8.02;;;;;;;6.47;73.26;97640.53;5153996;27;20049;-63
2021/11/28 07:44:35;;;;;;;11.23;6.93;;;;;;;6.45;72.85;97643.44;5156169;27;20069;-64
2021/11/28 07:47:04;;;;;;;12.35;7.55;;;;;;;6.39;73.86;97647.06;5155707;27;20038;-66
2021/11/28 07:49:37;;;;;;;11.68;7.30;;;;;;;6.29;73.09;97652.25;5148876;27;20043;-63
2021/11/28 07:52:15;;;;;;;13.68;7.85;;;;;;;6.29;72.58;97657.50;5118635;27;20053;-65
2021/11/28 07:54:42;;;;;;;14.27;8.02;;;;;;;6.25;73.53;97657.22;5116560;27;20518;-61
2021/11/28 07:57:09;;;;;;;13.57;6.82;;;;;;;6.25;73.00;97659.84;5116599;27;20553;-63
2021/11/28 08:00:10;;;;;;;10.95;7.25;;;;;;;6.31;72.37;97664.13;5089753;28;20056;-63
2021/11/28 08:03:00;;;;;;;11.40;6.78;;;;;;;6.31;72.64;97665.97;5127423;27;20075;-64
2021/11/28 08:05:53;;;;;;;12.00;7.13;;;;;;;6.40;72.92;97671.56;5119087;27;20043;-63
2021/11/28 08:08:23;;;;;;;10.25;6.88;;;;;;;6.50;72.14;97671.59;5117203;27;20474;-63
2021/11/28 08:11:09;;;;;;;10.98;7.00;;;;;;;6.47;70.57;97666.84;5131897;27;20051;-63
2021/11/28 08:13:34;;;;;;;10.13;6.90;;;;;;;6.43;71.34;97663.94;5131497;27;20208;-62
2021/11/28 08:16:01;;;;;;;11.55;7.20;;;;;;;6.40;71.02;97676.81;5131928;27;20583;-63
2021/11/28 08:18:27;;;;;;;9.95;6.22;;;;;;;6.26;70.12;97674.59;5131439;27;20114;-63
2021/11/28 08:20:53;;;;;;;11.50;5.47;;;;;;;6.21;69.32;97682.47;5131710;27;20178;-63
2021/11/28 08:23:20;;;;;;;7.68;5.28;;;;;;;6.18;68.30;97687.41;5131790;27;20035;-61
2021/11/28 08:25:46;;;;;;;7.50;5.20;;;;;;;6.14;66.91;97681.88;5114440;27;20074;-64
2021/11/28 08:28:12;;;;;;;8.32;4.75;;;;;;;6.21;66.60;97679.84;5131753;27;20070;-63
2021/11/28 08:30:38;;;;;;;7.47;5.18;;;;;;;6.23;66.19;97687.47;5097302;27;20150;-66
2021/11/28 08:33:28;;;;;;;7.30;5.20;;;;;;;6.28;67.06;97682.25;5102675;27;20496;-67
2021/11/28 08:36:16;;;;;;;7.32;5.10;;;;;;;6.28;67.00;97687.50;5131458;27;20082;-64
2021/11/28 08:38:43;;;;;;;8.65;5.68;;;;;;;6.30;67.59;97691.47;5131350;27;20082;-64
2021/11/28 08:41:13;;;;;;;8.48;5.63;;;;;;;6.28;67.77;97683.03;5131460;27;20051;-63
2021/11/28 08:43:39;;;;;;;8.07;5.72;;;;;;;6.20;68.00;97680.06;5133786;27;20573;-63
2021/11/28 08:46:07;;;;;;;7.95;5.50;;;;;;;6.16;68.55;97684.25;5133490;27;20455;-65
2021/11/28 08:48:36;;;;;;;9.15;5.93;;;;;;;6.19;68.73;97696.91;5133925;27;20500;-66
2021/11/28 08:51:03;;;;;;;9.07;5.35;;;;;;;6.23;69.21;97700.63;5133938;27;20065;-64
2021/11/28 08:53:29;;;;;;;9.30;6.20;;;;;;;6.24;69.04;97702.22;5133852;27;20039;-64
2021/11/28 08:55:55;;;;;;;8.85;5.82;;;;;;;6.21;68.41;97705.34;5132498;27;20443;-65
2021/11/28 08:58:21;;;;;;;11.32;5.60;;;;;;;6.19;68.07;97700.34;5133160;27;20039;-65
2021/11/28 09:00:47;;;;;;;9.60;6.10;;;;;;;6.18;68.00;97711.91;5133183;27;20066;-64
2021/11/28 09:03:14;;;;;;;13.70;5.85;;;;;;;6.17;67.88;97705.03;5115220;27;20039;-64
2021/11/28 09:05:40;;;;;;;10.52;5.88;;;;;;;6.12;67.51;97705.00;5134048;27;20425;-64
2021/11/28 09:08:06;;;;;;;10.27;5.25;;;;;;;6.21;66.68;97710.63;5133523;27;20063;-65
2021/11/28 09:10:32;;;;;;;7.38;4.97;;;;;;;6.22;66.69;97707.72;5115274;27;20142;-64
2021/11/28 09:12:58;;;;;;;9.73;5.53;;;;;;;6.21;65.87;97715.88;5133635;27;20412;-63
2021/11/28 09:15:25;;;;;;;8.38;5.70;;;;;;;6.22;66.71;97715.63;5133758;27;20047;-63
2021/11/28 09:17:57;;;;;;;9.32;5.78;;;;;;;6.27;66.13;97725.41;5115184;27;20039;-65
2021/11/28 09:20:24;;;;;;;8.85;5.57;;;;;;;6.32;66.42;97717.53;5133390;27;20559;-64
2021/11/28 09:25:18;;;;;;;9.93;6.03;;;;;;;6.25;67.23;97728.28;5132874;27;20137;-63
2021/11/28 09:27:46;;;;;;;10.10;5.95;;;;;;;6.35;66.06;97735.44;5133078;27;20500;-64
2021/11/28 09:30:14;;;;;;;8.90;5.25;;;;;;;6.34;66.24;97723.34;5132800;27;20051;-64
2021/11/28 09:32:41;;;;;;;9.45;5.63;;;;;;;6.27;67.02;97731.47;5133499;27;20062;-64
2021/11/28 09:35:07;;;;;;;9.00;5.55;;;;;;;6.20;67.03;97738.75;5133331;27;20045;-63
2021/11/28 09:37:33;;;;;;;9.90;6.22;;;;;;;6.18;67.11;97743.47;5131682;27;20031;-66
2021/11/28 09:39:59;;;;;;;7.82;5.57;;;;;;;6.12;66.84;97745.25;5133058;27;20077;-63
2021/11/28 09:42:29;;;;;;;10.65;6.30;;;;;;;6.13;67.36;97752.09;5132709;27;20043;-65
2021/11/28 09:44:58;;;;;;;11.15;6.45;;;;;;;6.14;67.56;97752.91;5132972;27;20054;-63
2021/11/28 09:47:26;;;;;;;9.35;5.97;;;;;;;6.14;67.30;97752.91;5132634;27;20039;-65
2021/11/28 09:49:52;;;;;;;8.32;5.55;;;;;;;6.09;67.14;97758.13;5132760;27;20043;-64
2021/11/28 09:52:23;;;;;;;10.20;6.05;;;;;;;6.17;66.89;97754.25;5131322;27;20035;-67
2021/11/28 09:54:52;;;;;;;8.15;5.93;;;;;;;6.07;67.48;97761.00;5132706;27;20472;-65
2021/11/28 09:57:20;;;;;;;9.75;6.40;;;;;;;5.94;68.28;97769.25;5114212;27;20039;-67
2021/11/28 09:59:48;;;;;;;10.10;7.25;;;;;;;5.99;67.89;97768.53;5131624;27;20141;-65
2021/11/28 10:02:20;;;;;;;12.20;6.13;;;;;;;5.95;68.11;97788.47;5131685;27;20057;-64
2021/11/28 10:04:46;;;;;;;10.60;6.28;;;;;;;5.87;68.34;97779.16;5131665;27;20142;-64
2021/11/28 10:07:14;;;;;;;8.70;5.95;;;;;;;5.96;67.74;97790.06;5131415;27;20039;-64
2021/11/28 10:09:40;;;;;;;12.15;6.75;;;;;;;5.97;68.38;97787.19;5131678;27;20039;-64
2021/11/28 10:12:26;;;;;;;9.48;6.50;;;;;;;6.02;67.48;97787.22;5131785;27;20507;-65
2021/11/28 10:14:58;;;;;;;10.88;5.78;;;;;;;6.07;67.32;97789.13;5132198;27;20043;-65
2021/11/28 10:17:28;;;;;;;8.45;5.80;;;;;;;6.11;67.05;97790.22;5131588;27;20039;-67
2021/11/28 10:19:58;;;;;;;10.70;5.75;;;;;;;6.11;66.94;97791.00;5130216;27;20171;-64
2021/11/28 10:22:25;;;;;;;8.75;6.00;;;;;;;6.11;66.58;97801.53;5131479;27;20058;-65
2021/11/28 10:25:15;;;;;;;8.98;5.35;;;;;;;6.04;66.64;97802.78;5130963;27;20039;-65
2021/11/28 10:27:45;;;;;;;;;;;;;;;5.99;66.80;97807.97;5131973;27;20058;-65
2021/11/28 10:30:15;;;;;;;10.13;5.75;;;;;;;6.03;66.41;97816.97;5129952;27;19923;-65
2021/11/28 10:32:42;;;;;;;;;;;;;;;6.06;66.87;97822.53;5131951;27;20505;-63
2021/11/28 10:35:12;;;;;;;9.90;5.90;;;;;;;6.04;66.33;97821.19;5131576;27;19942;-64
2021/11/28 10:37:40;;;;;;;11.68;6.38;;;;;;;6.03;66.62;97820.41;5135317;27;20083;-64
2021/11/28 10:40:07;;;;;;;12.68;5.60;;;;;;;6.03;66.79;97819.59;5135335;27;20057;-63
2021/11/28 10:42:35;;;;;;;10.77;5.93;;;;;;;6.04;66.50;97832.50;5135707;27;20035;-64
2021/11/28 10:45:15;;;;;;;12.32;6.68;;;;;;;6.08;66.57;97830.97;5135715;27;20167;-64
2021/11/28 10:47:53;;;;;;;17.55;6.68;;;;;;;6.05;66.44;97851.72;5134383;27;20076;-64
2021/11/28 10:50:33;;;;;;;9.93;6.50;;;;;;;6.08;66.95;97838.06;5135732;27;20039;-63
2021/11/28 10:53:15;;;;;;;11.68;5.72;;;;;;;6.17;66.08;97851.59;5134594;27;20028;-64
2021/11/28 10:55:54;;;;;;;11.18;6.40;;;;;;;6.23;65.77;97855.84;5135616;27;20449;-63
2021/11/28 10:58:30;;;;;;;10.02;6.22;;;;;;;6.21;65.38;97860.59;5135165;27;20072;-64
2021/11/28 11:01:08;;;;;;;10.93;5.70;;;;;;;6.14;65.12;97855.50;5135323;27;20043;-64
2021/11/28 11:03:37;;;;;;;8.27;5.82;;;;;;;6.16;65.25;97861.31;5136007;27;20043;-64
2021/11/28 11:06:29;;;;;;;8.27;5.72;;;;;;;6.02;65.24;97873.25;5134484;27;20039;-62
2021/11/28 11:09:21;;;;;;;8.70;6.13;;;;;;;5.86;66.15;97867.78;5135948;27;20095;-63
2021/11/28 11:11:47;;;;;;;8.07;5.10;;;;;;;5.85;66.00;97868.00;5142781;27;20131;-62
2021/11/28 11:14:14;;;;;;;8.40;5.38;;;;;;;5.89;65.50;97867.28;5135965;27;20137;-63
2021/11/28 11:16:45;;;;;;;8.70;5.85;;;;;;;5.88;65.92;97868.34;5135619;27;20247;-62
2021/11/28 11:19:27;;;;;;;7.55;5.47;;;;;;;5.84;66.30;97863.78;5135746;27;20050;-63
2021/11/28 11:22:06;;;;;;;9.52;5.47;;;;;;;5.79;65.35;97872.41;5135539;27;20046;-63
2021/11/28 11:24:34;;;;;;;8.35;5.38;;;;;;;5.84;66.28;97874.31;5135580;27;20091;-62
2021/11/28 11:27:33;;;;;;;8.98;5.55;;;;;;;5.68;66.04;97887.25;5134192;27;20039;-63
2021/11/28 11:30:10;;;;;;;7.70;5.00;;;;;;;5.73;66.39;97875.22;5134005;27;20527;-65
2021/11/28 11:32:43;;;;;;;8.23;5.25;;;;;;;5.77;66.18;97882.38;5135448;27;20158;-62
2021/11/28 11:35:15;;;;;;;7.65;5.25;;;;;;;5.76;66.10;97882.59;5135723;27;20073;-65
2021/11/28 11:37:42;;;;;;;8.15;5.20;;;;;;;5.63;65.82;97887.19;5135369;27;20385;-63
2021/11/28 11:40:10;;;;;;;7.38;5.00;;;;;;;5.54;65.97;97875.50;5135072;27;20047;-64
2021/11/28 11:42:38;;;;;;;6.30;4.72;;;;;;;5.52;65.62;97866.25;5135131;27;20460;-65
2021/11/28 11:45:06;;;;;;;7.38;4.65;;;;;;;5.57;65.24;97882.09;5135480;27;20050;-67
2021/11/28 11:47:32;;;;;;;7.20;4.78;;;;;;;5.59;65.28;97883.47;5134618;27;20122;-66
2021/11/28 11:49:58;;;;;;;7.60;4.57;;;;;;;5.56;65.75;97889.19;5134021;27;20047;-65
2021/11/28 11:52:24;;;;;;;8.30;4.45;;;;;;;5.57;65.13;97882.09;5134961;27;20134;-65
2021/11/28 11:55:05;;;;;;;7.22;4.75;;;;;;;5.61;65.74;97898.97;5134957;27;20503;-66